Time;durP1;ratioP1;P1;durP2;ratioP2;P2;SDS_P1;SDS_P2;PMS_P1;PMS_P2;Temp;Humidity;BMP_temperature;BMP_pressure;BME280_temperature;BME280_humidity;BME280_pressure;Samples;Min_cycle;Max_cycle;Signal;HPM_P1;HPM_P2
2023/01/18 00:01:00;;;;;;;17.30;9.02;;;;;;;;;;4936465;28;96451;-67
2023/01/18 00:03:26;;;;;;;17.30;8.70;;;;;;;;;;4944012;28;91730;-67
2023/01/18 00:05:53;;;;;;;19.38;9.05;;;;;;;;;;4940173;28;92695;-66
2023/01/18 00:08:19;;;;;;;17.23;8.18;;;;;;;;;;4949424;28;93434;-68
2023/01/18 00:10:46;;;;;;;13.68;8.30;;;;;;;;;;4941021;28;95008;-69
2023/01/18 00:13:12;;;;;;;17.63;8.73;;;;;;;;;;4934729;28;95469;-67
2023/01/18 00:15:38;;;;;;;15.65;8.13;;;;;;;;;;4935237;28;92579;-68
2023/01/18 00:18:05;;;;;;;17.13;7.82;;;;;;;;;;4939022;28;93653;-67
2023/01/18 00:20:31;;;;;;;18.17;9.02;;;;;;;;;;4934368;28;93978;-67
2023/01/18 00:22:58;;;;;;;14.45;8.45;;;;;;;;;;4936656;28;92460;-68
2023/01/18 00:25:24;;;;;;;14.68;8.85;;;;;;;;;;4941466;28;93157;-67
2023/01/18 00:27:52;;;;;;;16.30;8.57;;;;;;;;;;4937813;28;93294;-67
2023/01/18 00:30:19;;;;;;;18.73;8.50;;;;;;;;;;4934375;28;94506;-67
2023/01/18 00:32:46;;;;;;;12.60;7.85;;;;;;;;;;4951412;28;93156;-67
2023/01/18 00:35:14;;;;;;;19.15;8.75;;;;;;;;;;4953421;28;94835;-67
2023/01/18 00:37:41;;;;;;;15.77;8.40;;;;;;;;;;4951355;28;96768;-67
2023/01/18 00:40:07;;;;;;;17.92;9.00;;;;;;;;;;4941023;28;93338;-67
2023/01/18 00:45:19;;;;;;;21.77;7.45;;;;;;;;;;4936924;28;93546;-68
2023/01/18 00:47:45;;;;;;;13.50;7.47;;;;;;;;;;4941582;28;93448;-69
2023/01/18 00:50:11;;;;;;;14.68;8.10;;;;;;;;;;4944093;28;92513;-69
2023/01/18 00:52:45;;;;;;;18.92;7.60;;;;;;;;;;4940193;28;93200;-68
2023/01/18 00:55:11;;;;;;;10.32;7.07;;;;;;;;;;4943382;28;94309;-68
2023/01/18 00:57:38;;;;;;;10.95;7.10;;;;;;;;;;4936628;28;93446;-69
2023/01/18 01:00:05;;;;;;;13.82;7.18;;;;;;;;;;4935538;28;95991;-68
2023/01/18 01:02:32;;;;;;;14.50;7.60;;;;;;;;;;4935522;28;92529;-69
2023/01/18 01:07:47;;;;;;;14.40;7.43;;;;;;;;;;4937213;28;92869;-68
2023/01/18 01:10:14;;;;;;;13.52;7.00;;;;;;;;;;4944576;28;92632;-68
2023/01/18 01:26:25;;;;;;;14.60;6.43;;;;;;;;;;4936538;28;94831;-69
2023/01/18 01:28:52;;;;;;;10.98;7.25;;;;;;;;;;4935440;28;93788;-68
2023/01/18 01:31:18;;;;;;;12.65;7.15;;;;;;;;;;4934738;28;92489;-68
2023/01/18 01:33:47;;;;;;;13.27;6.43;;;;;;;;;;4941522;28;93356;-68
2023/01/18 01:36:15;;;;;;;15.85;7.70;;;;;;;;;;4945052;28;93979;-68
2023/01/18 01:38:42;;;;;;;14.05;6.72;;;;;;;;;;4937537;28;92458;-68
2023/01/18 01:41:12;;;;;;;11.27;7.18;;;;;;;;;;4932018;28;93131;-68
2023/01/18 01:43:40;;;;;;;16.30;7.43;;;;;;;;;;4931106;28;91744;-68
2023/01/18 01:46:14;;;;;;;19.98;7.32;;;;;;;;;;4936807;28;92509;-68
2023/01/18 01:48:41;;;;;;;12.05;7.55;;;;;;;;;;4936107;28;93493;-68
2023/01/18 01:51:07;;;;;;;10.77;6.25;;;;;;;;;;4933913;28;94801;-68
2023/01/18 01:53:33;;;;;;;17.45;6.97;;;;;;;;;;4936798;28;95397;-69
2023/01/18 01:56:00;;;;;;;14.73;7.00;;;;;;;;;;4936296;28;93899;-68
2023/01/18 01:58:27;;;;;;;16.08;7.40;;;;;;;;;;4935374;28;92566;-68
2023/01/18 02:00:54;;;;;;;12.63;6.95;;;;;;;;;;4934892;28;93289;-69
2023/01/18 02:03:21;;;;;;;14.20;7.78;;;;;;;;;;4930636;28;93370;-68
2023/01/18 02:05:49;;;;;;;16.27;7.43;;;;;;;;;;4929931;28;93250;-68
2023/01/18 02:08:21;;;;;;;14.20;7.68;;;;;;;;;;4935894;28;92964;-68
2023/01/18 02:10:48;;;;;;;11.65;7.20;;;;;;;;;;4935600;28;92471;-68
2023/01/18 02:13:14;;;;;;;10.80;6.93;;;;;;;;;;4933404;28;93408;-68
2023/01/18 02:15:59;;;;;;;10.55;6.78;;;;;;;;;;4933461;28;94994;-68
2023/01/18 02:18:28;;;;;;;14.35;7.68;;;;;;;;;;4934709;28;92655;-68
2023/01/18 02:21:01;;;;;;;11.00;6.80;;;;;;;;;;4937421;28;93155;-68
2023/01/18 02:23:32;;;;;;;13.02;7.07;;;;;;;;;;4945526;28;93873;-68
2023/01/18 02:26:04;;;;;;;15.18;7.30;;;;;;;;;;4944263;28;93913;-68
2023/01/18 02:28:34;;;;;;;14.20;6.68;;;;;;;;;;4939477;28;93449;-68
2023/01/18 02:31:07;;;;;;;12.38;6.75;;;;;;;;;;4943293;28;92485;-68
2023/01/18 02:33:43;;;;;;;15.10;7.32;;;;;;;;;;4939917;28;93231;-68
2023/01/18 02:36:10;;;;;;;13.30;7.15;;;;;;;;;;4934998;28;93344;-68
2023/01/18 02:38:40;;;;;;;11.32;6.95;;;;;;;;;;4941780;28;92541;-68
2023/01/18 02:41:15;;;;;;;13.60;7.55;;;;;;;;;;4939033;28;94945;-68
2023/01/18 02:46:34;;;;;;;11.75;7.38;;;;;;;;;;4939582;28;92866;-68
2023/01/18 02:49:04;;;;;;;15.10;7.82;;;;;;;;;;4939324;28;94327;-68
2023/01/18 02:51:30;;;;;;;13.68;7.50;;;;;;;;;;4947283;28;92489;-68
2023/01/18 02:53:57;;;;;;;18.80;8.20;;;;;;;;;;4934556;28;92449;-68
2023/01/18 02:56:23;;;;;;;16.65;8.65;;;;;;;;;;4937048;28;93045;-68
2023/01/18 02:58:52;;;;;;;19.48;8.18;;;;;;;;;;4935348;28;91763;-67
2023/01/18 03:01:32;;;;;;;15.82;7.57;;;;;;;;;;4942151;28;92739;-68
2023/01/18 03:04:19;;;;;;;16.85;8.48;;;;;;;;;;4945861;28;93609;-68
2023/01/18 03:06:47;;;;;;;16.73;8.95;;;;;;;;;;4928572;28;96834;-68
2023/01/18 03:09:17;;;;;;;21.60;8.38;;;;;;;;;;4924654;28;95747;-68
2023/01/18 03:12:05;;;;;;;12.70;7.82;;;;;;;;;;4936974;28;92652;-68
2023/01/18 03:14:50;;;;;;;14.98;8.43;;;;;;;;;;4916077;28;93188;-68
2023/01/18 03:17:22;;;;;;;20.42;9.27;;;;;;;;;;4933544;28;93926;-68
2023/01/18 03:20:05;;;;;;;16.67;8.60;;;;;;;;;;4944989;28;92630;-68
2023/01/18 03:25:33;;;;;;;19.83;8.80;;;;;;;;;;4934675;28;93815;-68
2023/01/18 03:33:47;;;;;;;16.48;8.57;;;;;;;;;;4943250;28;96050;-68
2023/01/18 03:36:17;;;;;;;18.15;8.73;;;;;;;;;;4935131;28;95610;-68
2023/01/18 03:38:45;;;;;;;18.77;8.88;;;;;;;;;;4942689;28;93648;-67
2023/01/18 03:41:12;;;;;;;15.18;9.10;;;;;;;;;;4946877;28;92449;-68
2023/01/18 03:43:39;;;;;;;21.60;9.25;;;;;;;;;;4951525;28;93177;-67
2023/01/18 03:46:07;;;;;;;16.77;9.18;;;;;;;;;;4939996;28;93594;-68
2023/01/18 03:48:34;;;;;;;16.75;8.48;;;;;;;;;;4923497;28;93172;-68
2023/01/18 03:51:04;;;;;;;17.35;8.95;;;;;;;;;;4933639;28;93008;-68
2023/01/18 03:53:50;;;;;;;16.67;8.27;;;;;;;;;;4931838;28;93959;-67
2023/01/18 03:56:33;;;;;;;15.95;9.32;;;;;;;;;;4926397;28;92481;-69
2023/01/18 03:59:01;;;;;;;18.27;9.65;;;;;;;;;;4935977;28;95744;-68
2023/01/18 04:01:28;;;;;;;16.88;8.88;;;;;;;;;;4936745;28;92899;-68
2023/01/18 04:03:54;;;;;;;17.60;9.25;;;;;;;;;;4937617;28;93474;-68
2023/01/18 04:06:22;;;;;;;15.50;8.90;;;;;;;;;;4936516;28;93754;-68
2023/01/18 04:08:49;;;;;;;23.83;8.90;;;;;;;;;;4919003;28;92429;-68
2023/01/18 04:11:15;;;;;;;18.08;8.70;;;;;;;;;;4935007;28;93164;-68
2023/01/18 04:13:42;;;;;;;14.77;8.43;;;;;;;;;;4937125;28;93621;-68
2023/01/18 04:16:08;;;;;;;17.35;8.70;;;;;;;;;;4936116;28;91880;-68
2023/01/18 04:18:34;;;;;;;17.13;8.70;;;;;;;;;;4940567;28;92663;-68
2023/01/18 04:21:01;;;;;;;14.80;8.70;;;;;;;;;;4939933;28;92780;-68
2023/01/18 04:23:27;;;;;;;13.93;8.45;;;;;;;;;;4937893;28;94898;-68
2023/01/18 04:25:53;;;;;;;13.30;8.27;;;;;;;;;;4939411;28;93407;-69
2023/01/18 04:28:24;;;;;;;17.95;8.98;;;;;;;;;;4936843;28;92546;-68
2023/01/18 04:30:51;;;;;;;16.33;8.63;;;;;;;;;;4936850;28;93080;-68
2023/01/18 04:33:19;;;;;;;13.02;7.90;;;;;;;;;;4939454;28;93519;-68
2023/01/18 04:35:46;;;;;;;19.42;7.75;;;;;;;;;;4937356;28;92708;-68
2023/01/18 04:38:12;;;;;;;13.55;8.10;;;;;;;;;;4937731;28;93141;-68
2023/01/18 04:40:38;;;;;;;16.10;8.20;;;;;;;;;;4940107;28;92695;-68
2023/01/18 04:43:05;;;;;;;16.48;8.93;;;;;;;;;;4940678;28;93212;-68
2023/01/18 04:45:31;;;;;;;12.68;7.70;;;;;;;;;;4941856;28;93406;-68
2023/01/18 04:47:57;;;;;;;16.48;7.70;;;;;;;;;;4938460;28;94910;-68
2023/01/18 04:50:24;;;;;;;16.63;8.45;;;;;;;;;;4938769;28;95978;-69
2023/01/18 04:52:50;;;;;;;15.57;8.10;;;;;;;;;;4937938;28;93485;-68
2023/01/18 04:55:16;;;;;;;12.32;8.00;;;;;;;;;;4942218;28;92468;-68
2023/01/18 04:57:43;;;;;;;11.02;6.90;;;;;;;;;;4937763;28;93404;-68
2023/01/18 05:00:11;;;;;;;14.60;8.35;;;;;;;;;;4964941;28;93501;-68
2023/01/18 05:02:37;;;;;;;14.85;8.27;;;;;;;;;;4952657;28;97255;-68
2023/01/18 05:05:04;;;;;;;18.20;8.70;;;;;;;;;;4938074;28;93077;-68
2023/01/18 05:07:32;;;;;;;13.70;7.97;;;;;;;;;;4944828;28;92695;-68
2023/01/18 05:09:59;;;;;;;12.45;7.20;;;;;;;;;;4935639;28;93258;-67
2023/01/18 05:12:26;;;;;;;12.55;7.80;;;;;;;;;;4946970;28;96019;-68
2023/01/18 05:14:52;;;;;;;11.55;7.50;;;;;;;;;;4945878;28;93602;-68
2023/01/18 05:17:18;;;;;;;16.00;8.27;;;;;;;;;;4944626;28;93234;-69
2023/01/18 05:19:47;;;;;;;12.85;7.32;;;;;;;;;;4946103;28;93647;-68
2023/01/18 05:22:13;;;;;;;13.65;7.75;;;;;;;;;;4957224;28;92622;-68
2023/01/18 05:24:39;;;;;;;20.40;8.43;;;;;;;;;;4944910;28;93444;-68
2023/01/18 05:27:06;;;;;;;22.67;8.13;;;;;;;;;;4945030;28;92565;-68
2023/01/18 05:29:32;;;;;;;14.50;8.05;;;;;;;;;;4934483;28;91728;-68
2023/01/18 05:31:58;;;;;;;18.15;7.75;;;;;;;;;;4942160;28;93815;-68
2023/01/18 05:34:26;;;;;;;18.92;7.82;;;;;;;;;;4938053;28;92514;-68
2023/01/18 05:36:52;;;;;;;14.85;7.85;;;;;;;;;;4939415;28;94835;-67
2023/01/18 05:39:18;;;;;;;12.98;6.93;;;;;;;;;;4936530;28;93465;-68
2023/01/18 05:41:44;;;;;;;15.07;7.82;;;;;;;;;;4922073;28;92982;-68
2023/01/18 05:44:11;;;;;;;22.05;7.78;;;;;;;;;;4923364;28;93106;-68
2023/01/18 05:46:37;;;;;;;15.20;7.00;;;;;;;;;;4937175;28;92585;-68
2023/01/18 05:49:03;;;;;;;16.60;7.32;;;;;;;;;;4936111;28;93877;-68
2023/01/18 05:51:30;;;;;;;10.45;7.15;;;;;;;;;;4935565;28;93546;-68
2023/01/18 05:53:56;;;;;;;15.05;7.18;;;;;;;;;;4936573;28;91772;-68
2023/01/18 05:56:22;;;;;;;11.73;6.80;;;;;;;;;;4935298;28;92513;-68
2023/01/18 05:58:48;;;;;;;13.48;7.60;;;;;;;;;;4935744;28;93439;-68
2023/01/18 06:01:15;;;;;;;10.65;7.40;;;;;;;;;;4934274;28;94867;-69
2023/01/18 06:03:41;;;;;;;18.63;8.18;;;;;;;;;;4935229;28;95487;-68
2023/01/18 06:06:08;;;;;;;14.43;8.05;;;;;;;;;;4937867;28;96248;-68
2023/01/18 06:08:34;;;;;;;19.08;8.43;;;;;;;;;;4935589;28;93311;-68
2023/01/18 06:11:01;;;;;;;12.90;8.75;;;;;;;;;;4926410;28;93810;-68
2023/01/18 06:13:28;;;;;;;13.57;8.20;;;;;;;;;;4935794;28;92449;-68
2023/01/18 06:15:55;;;;;;;19.92;8.95;;;;;;;;;;4935632;28;93137;-67
2023/01/18 06:18:23;;;;;;;21.60;8.88;;;;;;;;;;4934311;28;92696;-68
2023/01/18 06:20:51;;;;;;;13.57;7.82;;;;;;;;;;4933220;28;92536;-68
2023/01/18 06:23:17;;;;;;;17.13;8.70;;;;;;;;;;4945650;28;92385;-68
2023/01/18 06:25:44;;;;;;;18.85;8.27;;;;;;;;;;4938477;28;95817;-68
2023/01/18 06:28:10;;;;;;;20.33;8.40;;;;;;;;;;4936584;28;92486;-68
2023/01/18 06:30:36;;;;;;;18.80;8.80;;;;;;;;;;4944690;28;96439;-68
2023/01/18 06:33:05;;;;;;;18.92;7.88;;;;;;;;;;4934546;28;92458;-68
2023/01/18 06:35:35;;;;;;;12.10;7.78;;;;;;;;;;4934308;28;93697;-68
2023/01/18 06:38:01;;;;;;;19.42;8.60;;;;;;;;;;4949603;28;93741;-68
2023/01/18 06:40:28;;;;;;;16.08;8.07;;;;;;;;;;4940193;28;92487;-68
2023/01/18 06:42:54;;;;;;;16.50;8.73;;;;;;;;;;4937206;28;93179;-68
2023/01/18 06:45:21;;;;;;;15.57;7.88;;;;;;;;;;4941640;28;93573;-68
2023/01/18 06:47:48;;;;;;;13.27;7.55;;;;;;;;;;4934001;28;92568;-68
2023/01/18 06:50:15;;;;;;;17.13;7.65;;;;;;;;;;4936486;28;95122;-68
2023/01/18 06:52:42;;;;;;;12.93;7.97;;;;;;;;;;4941907;28;92480;-68
2023/01/18 06:55:09;;;;;;;14.77;7.93;;;;;;;;;;4937674;28;93182;-68
2023/01/18 06:57:35;;;;;;;14.15;7.95;;;;;;;;;;4934886;28;92781;-68
2023/01/18 07:00:04;;;;;;;26.80;8.30;;;;;;;;;;4948380;28;92582;-68
2023/01/18 07:02:31;;;;;;;15.75;8.52;;;;;;;;;;4946853;28;93289;-68
2023/01/18 07:04:58;;;;;;;13.88;7.22;;;;;;;;;;4934911;28;93441;-68
2023/01/18 07:07:24;;;;;;;15.32;7.95;;;;;;;;;;4935768;28;91663;-69
2023/01/18 07:09:50;;;;;;;12.45;7.30;;;;;;;;;;4949101;28;93480;-68
2023/01/18 07:12:17;;;;;;;16.77;7.15;;;;;;;;;;4950946;28;92941;-68
2023/01/18 07:14:44;;;;;;;14.73;7.43;;;;;;;;;;4952378;28;94873;-68
2023/01/18 07:17:10;;;;;;;14.23;7.63;;;;;;;;;;4933962;28;93721;-68
2023/01/18 07:19:36;;;;;;;10.35;6.45;;;;;;;;;;4934195;28;92489;-68
2023/01/18 07:22:02;;;;;;;18.00;7.05;;;;;;;;;;4942542;28;93250;-68
2023/01/18 07:24:29;;;;;;;14.15;7.05;;;;;;;;;;4934596;28;95576;-68
2023/01/18 07:26:57;;;;;;;21.00;7.03;;;;;;;;;;4935245;28;92525;-68
2023/01/18 07:29:24;;;;;;;21.83;7.22;;;;;;;;;;4935624;28;93196;-69
2023/01/18 07:31:51;;;;;;;13.45;7.55;;;;;;;;;;4936010;28;92663;-69
2023/01/18 07:34:17;;;;;;;13.77;7.10;;;;;;;;;;4937333;28;93603;-68
2023/01/18 07:36:43;;;;;;;12.90;7.43;;;;;;;;;;4933495;28;93388;-68
2023/01/18 07:39:10;;;;;;;16.85;7.53;;;;;;;;;;4933795;28;94995;-69
2023/01/18 07:41:37;;;;;;;13.23;7.47;;;;;;;;;;4924095;28;96872;-68
2023/01/18 07:44:04;;;;;;;13.73;6.45;;;;;;;;;;4935141;28;93237;-68
2023/01/18 07:46:30;;;;;;;12.18;6.70;;;;;;;;;;4944889;28;92419;-68
2023/01/18 07:48:57;;;;;;;16.40;7.38;;;;;;;;;;4953841;28;93169;-69
2023/01/18 07:51:23;;;;;;;15.88;7.45;;;;;;;;;;4936431;28;94891;-68
2023/01/18 07:53:53;;;;;;;14.25;6.90;;;;;;;;;;4945414;28;92448;-68
2023/01/18 07:56:20;;;;;;;15.70;7.35;;;;;;;;;;4944223;28;94087;-68
2023/01/18 07:58:47;;;;;;;14.27;7.18;;;;;;;;;;4953338;28;92432;-68
2023/01/18 08:01:17;;;;;;;19.70;7.40;;;;;;;;;;4954327;28;93316;-68
2023/01/18 08:03:44;;;;;;;16.25;7.30;;;;;;;;;;4939438;28;95790;-68
2023/01/18 08:06:15;;;;;;;14.52;7.22;;;;;;;;;;4934894;28;92517;-68
2023/01/18 08:08:42;;;;;;;14.45;7.78;;;;;;;;;;4934519;28;93035;-68
2023/01/18 08:11:09;;;;;;;17.13;7.20;;;;;;;;;;4933999;28;93507;-68
2023/01/18 08:13:35;;;;;;;16.40;7.00;;;;;;;;;;4940769;28;93703;-68
2023/01/18 08:16:03;;;;;;;13.93;7.53;;;;;;;;;;4932847;28;93502;-68
2023/01/18 08:18:30;;;;;;;19.38;7.80;;;;;;;;;;4944928;28;92490;-69
2023/01/18 08:20:56;;;;;;;14.70;7.78;;;;;;;;;;4950676;28;93519;-68
2023/01/18 08:23:23;;;;;;;16.13;6.85;;;;;;;;;;4930043;28;93451;-68
2023/01/18 08:25:49;;;;;;;15.57;7.70;;;;;;;;;;4932495;28;92812;-68
2023/01/18 08:28:17;;;;;;;14.88;7.00;;;;;;;;;;4947931;28;94984;-68
2023/01/18 08:30:45;;;;;;;19.52;7.22;;;;;;;;;;4944776;28;93497;-68
2023/01/18 08:33:12;;;;;;;15.43;7.57;;;;;;;;;;4936485;28;92472;-68
2023/01/18 08:35:43;;;;;;;15.25;8.23;;;;;;;;;;4947721;28;93194;-67
2023/01/18 08:38:09;;;;;;;13.43;6.93;;;;;;;;;;4940383;28;94057;-67
2023/01/18 08:40:36;;;;;;;11.93;6.85;;;;;;;;;;4938198;28;93670;-66
2023/01/18 08:43:03;;;;;;;19.13;7.20;;;;;;;;;;4944267;28;93558;-67
2023/01/18 08:45:29;;;;;;;19.88;9.07;;;;;;;;;;4953224;28;91743;-67
2023/01/18 08:47:57;;;;;;;15.65;7.63;;;;;;;;;;4942836;28;93144;-67
2023/01/18 08:50:23;;;;;;;14.40;7.55;;;;;;;;;;4946289;28;93965;-67
2023/01/18 08:52:52;;;;;;;17.83;8.10;;;;;;;;;;4937704;28;95289;-67
2023/01/18 08:55:19;;;;;;;13.85;7.00;;;;;;;;;;4957259;28;95700;-67
2023/01/18 08:57:46;;;;;;;13.65;7.60;;;;;;;;;;4953747;28;93449;-67
2023/01/18 09:00:12;;;;;;;13.38;7.45;;;;;;;;;;4937798;28;92519;-67
2023/01/18 09:02:39;;;;;;;14.55;7.93;;;;;;;;;;4929139;28;94486;-67
2023/01/18 09:05:05;;;;;;;13.70;7.22;;;;;;;;;;4939782;28;92463;-67
2023/01/18 09:07:31;;;;;;;15.43;7.90;;;;;;;;;;4929681;28;93153;-67
2023/01/18 09:09:58;;;;;;;16.33;7.93;;;;;;;;;;4935100;28;93004;-67
2023/01/18 09:12:24;;;;;;;17.30;8.25;;;;;;;;;;4937606;28;92394;-67
2023/01/18 09:14:51;;;;;;;17.38;7.85;;;;;;;;;;4937300;28;93529;-67
2023/01/18 09:17:18;;;;;;;14.95;7.70;;;;;;;;;;4941994;28;96226;-67
2023/01/18 09:19:44;;;;;;;21.35;8.05;;;;;;;;;;4958989;28;92428;-67
2023/01/18 09:22:11;;;;;;;13.73;7.97;;;;;;;;;;4941270;28;93657;-67
2023/01/18 09:24:37;;;;;;;17.85;7.85;;;;;;;;;;4951066;28;92505;-68
2023/01/18 09:27:04;;;;;;;14.48;7.65;;;;;;;;;;4937338;28;93978;-67
2023/01/18 09:29:30;;;;;;;18.15;7.88;;;;;;;;;;4936606;28;93321;-67
2023/01/18 09:31:58;;;;;;;13.40;7.03;;;;;;;;;;4939152;28;94171;-67
2023/01/18 09:34:25;;;;;;;11.90;7.40;;;;;;;;;;4947532;28;93566;-68
2023/01/18 09:36:51;;;;;;;17.80;7.90;;;;;;;;;;4939635;28;94238;-68
2023/01/18 09:39:18;;;;;;;17.75;7.28;;;;;;;;;;4943300;28;92466;-67
2023/01/18 09:41:49;;;;;;;15.50;7.57;;;;;;;;;;4952749;28;94907;-67
2023/01/18 09:44:18;;;;;;;16.55;7.95;;;;;;;;;;4936966;28;92460;-67
2023/01/18 09:46:47;;;;;;;22.25;11.40;;;;;;;;;;4935799;28;93187;-67
2023/01/18 09:49:22;;;;;;;20.45;8.43;;;;;;;;;;4936242;28;93694;-68
2023/01/18 09:51:55;;;;;;;15.25;9.65;;;;;;;;;;4937084;28;92488;-67
2023/01/18 09:54:38;;;;;;;17.17;9.93;;;;;;;;;;4956543;28;93100;-67
2023/01/18 09:57:25;;;;;;;14.63;7.28;;;;;;;;;;4937514;28;94603;-67
2023/01/18 09:59:56;;;;;;;15.65;8.00;;;;;;;;;;4936266;28;91727;-67
2023/01/18 10:02:22;;;;;;;;;;;;;;;;;;4936959;28;92756;-67
2023/01/18 10:05:03;;;;;;;13.70;7.10;;;;;;;;;;4941567;28;122747;-67
2023/01/18 10:07:32;;;;;;;11.75;6.75;;;;;;;;;;4932860;28;94986;-68
2023/01/18 10:09:59;;;;;;;15.90;7.13;;;;;;;;;;4935748;28;93470;-67
2023/01/18 10:12:29;;;;;;;15.00;7.75;;;;;;;;;;4936441;28;92615;-67
2023/01/18 10:14:59;;;;;;;20.15;7.95;;;;;;;;;;4937734;28;94543;-67
2023/01/18 10:17:32;;;;;;;12.90;7.20;;;;;;;;;;4935156;28;93582;-66
2023/01/18 10:19:59;;;;;;;13.55;7.20;;;;;;;;;;4934411;28;92645;-66
2023/01/18 10:22:38;;;;;;;14.40;7.82;;;;;;;;;;4935460;28;93052;-67
2023/01/18 10:25:13;;;;;;;15.40;6.82;;;;;;;;;;4935697;28;92303;-67
2023/01/18 10:27:44;;;;;;;12.27;7.03;;;;;;;;;;4953473;28;92600;-67
2023/01/18 10:30:14;;;;;;;14.27;6.40;;;;;;;;;;4944306;28;93564;-67
2023/01/18 10:32:41;;;;;;;;;;;;;;;;;;4935360;28;94867;-67
2023/01/18 10:35:15;;;;;;;10.25;5.97;;;;;;;;;;4947318;28;125981;-67
2023/01/18 10:37:45;;;;;;;11.25;6.35;;;;;;;;;;4950038;28;93425;-67
2023/01/18 10:40:13;;;;;;;14.47;6.73;;;;;;;;;;4948729;28;92415;-67
2023/01/18 10:42:43;;;;;;;12.85;6.63;;;;;;;;;;4933197;28;93824;-66
2023/01/18 10:45:11;;;;;;;12.57;6.35;;;;;;;;;;4933855;28;93893;-67
2023/01/18 10:47:37;;;;;;;11.32;6.45;;;;;;;;;;4951211;28;93635;-66
2023/01/18 10:50:11;;;;;;;16.75;7.18;;;;;;;;;;4937671;28;93548;-66
2023/01/18 10:52:37;;;;;;;9.57;6.50;;;;;;;;;;4951386;28;92593;-67
2023/01/18 10:55:07;;;;;;;10.35;6.47;;;;;;;;;;4952501;28;93222;-66
2023/01/18 10:57:36;;;;;;;9.13;5.55;;;;;;;;;;4941925;28;95781;-67
2023/01/18 11:00:11;;;;;;;10.38;5.40;;;;;;;;;;4945442;28;93363;-67
2023/01/18 11:02:38;;;;;;;14.73;7.07;;;;;;;;;;4944417;28;94481;-67
2023/01/18 11:05:21;;;;;;;11.32;5.60;;;;;;;;;;4942380;28;93551;-67
2023/01/18 11:08:07;;;;;;;9.40;5.15;;;;;;;;;;4945326;28;92525;-67
2023/01/18 11:10:36;;;;;;;16.08;6.10;;;;;;;;;;4948828;28;93142;-67
2023/01/18 11:13:03;;;;;;;11.50;5.50;;;;;;;;;;4941380;28;92378;-67
2023/01/18 11:15:30;;;;;;;11.73;5.30;;;;;;;;;;4949777;28;94291;-67
2023/01/18 11:17:56;;;;;;;14.18;5.70;;;;;;;;;;4935550;28;93442;-67
2023/01/18 11:20:28;;;;;;;10.65;5.60;;;;;;;;;;4951425;28;92648;-67
2023/01/18 11:23:00;;;;;;;11.43;5.55;;;;;;;;;;4932480;28;94894;-67
2023/01/18 11:25:37;;;;;;;8.75;5.68;;;;;;;;;;4944158;28;93853;-67
2023/01/18 11:28:08;;;;;;;15.00;5.45;;;;;;;;;;4955178;28;92749;-67
2023/01/18 11:30:34;;;;;;;;;;;;;;;;;;4943830;28;93208;-67
2023/01/18 11:33:00;;;;;;;14.68;5.03;;;;;;;;;;4939806;28;124832;-67
2023/01/18 11:35:31;;;;;;;10.02;4.95;;;;;;;;;;4944582;28;93159;-68
2023/01/18 11:37:59;;;;;;;9.02;5.45;;;;;;;;;;4954591;28;93666;-67
2023/01/18 11:40:31;;;;;;;10.38;5.20;;;;;;;;;;4955421;28;91734;-67
2023/01/18 11:43:13;;;;;;;8.30;5.53;;;;;;;;;;4933776;28;92690;-67
2023/01/18 11:45:42;;;;;;;9.32;5.45;;;;;;;;;;4948600;28;94155;-68
2023/01/18 11:48:22;;;;;;;10.40;5.55;;;;;;;;;;4932388;28;94906;-67
2023/01/18 11:50:54;;;;;;;11.85;8.30;;;;;;;;;;4934538;28;95584;-67
2023/01/18 11:53:40;;;;;;;14.40;10.63;;;;;;;;;;4934248;28;93768;-67
2023/01/18 11:56:12;;;;;;;13.77;8.07;;;;;;;;;;4934753;28;94306;-67
2023/01/18 11:58:39;;;;;;;13.95;5.95;;;;;;;;;;4934218;28;92676;-67
2023/01/18 12:01:05;;;;;;;10.00;5.55;;;;;;;;;;4935258;28;92405;-67
2023/01/18 12:03:50;;;;;;;9.25;5.82;;;;;;;;;;4935029;28;93564;-68
2023/01/18 12:06:19;;;;;;;9.25;6.25;;;;;;;;;;4922378;28;92654;-67
2023/01/18 12:08:59;;;;;;;12.50;6.32;;;;;;;;;;4954621;28;92450;-67
2023/01/18 12:11:33;;;;;;;6.90;5.10;;;;;;;;;;4953238;28;93517;-67
2023/01/18 12:14:04;;;;;;;10.32;5.18;;;;;;;;;;4932457;28;95886;-67
2023/01/18 12:16:40;;;;;;;9.85;5.40;;;;;;;;;;4929903;28;93258;-67
2023/01/18 12:19:18;;;;;;;12.95;5.30;;;;;;;;;;4941181;28;93413;-67
2023/01/18 12:21:55;;;;;;;15.05;4.68;;;;;;;;;;4938202;28;92408;-67
2023/01/18 12:24:28;;;;;;;20.80;5.57;;;;;;;;;;4934393;28;93348;-67
2023/01/18 12:26:57;;;;;;;7.35;4.50;;;;;;;;;;4941354;28;94386;-66
2023/01/18 12:29:32;;;;;;;16.52;5.65;;;;;;;;;;4937234;28;92596;-67
2023/01/18 12:32:04;;;;;;;6.80;4.78;;;;;;;;;;4935903;28;93639;-67
2023/01/18 12:34:36;;;;;;;11.95;5.53;;;;;;;;;;4936447;28;93406;-68
2023/01/18 12:37:09;;;;;;;7.68;4.75;;;;;;;;;;4932202;28;93666;-67
2023/01/18 12:39:41;;;;;;;14.23;5.05;;;;;;;;;;4938299;28;94990;-66
2023/01/18 12:42:18;;;;;;;11.45;4.20;;;;;;;;;;4931937;28;93718;-68
2023/01/18 12:44:45;;;;;;;10.70;4.72;;;;;;;;;;4957056;28;93174;-68
2023/01/18 12:47:22;;;;;;;9.38;4.28;;;;;;;;;;4945295;28;94565;-70
2023/01/18 12:49:51;;;;;;;7.05;4.40;;;;;;;;;;4950773;28;92495;-68
2023/01/18 12:52:20;;;;;;;11.18;4.32;;;;;;;;;;4935495;28;93259;-67
2023/01/18 12:54:48;;;;;;;8.25;4.13;;;;;;;;;;4935610;28;93857;-67
2023/01/18 12:57:15;;;;;;;8.50;3.92;;;;;;;;;;4947696;28;91771;-68
2023/01/18 12:59:49;;;;;;;7.32;3.75;;;;;;;;;;4951130;28;92598;-68
2023/01/18 13:02:24;;;;;;;8.07;4.05;;;;;;;;;;4935503;28;93616;-68
2023/01/18 13:05:03;;;;;;;15.10;3.95;;;;;;;;;;4936962;28;94903;-68
2023/01/18 13:07:40;;;;;;;7.63;3.70;;;;;;;;;;4936612;28;93804;-67
2023/01/18 13:10:13;;;;;;;8.38;3.35;;;;;;;;;;4937047;28;92482;-67
2023/01/18 13:12:39;;;;;;;9.25;3.63;;;;;;;;;;4943938;28;97158;-68
2023/01/18 13:15:32;;;;;;;8.35;3.90;;;;;;;;;;4933435;28;93416;-67
2023/01/18 13:18:12;;;;;;;8.80;3.80;;;;;;;;;;4935074;28;92458;-68
2023/01/18 13:20:41;;;;;;;9.00;4.45;;;;;;;;;;4956958;28;93447;-67
2023/01/18 13:23:19;;;;;;;7.90;3.50;;;;;;;;;;4956735;28;93062;-67
2023/01/18 13:25:50;;;;;;;7.30;3.88;;;;;;;;;;4958431;28;92475;-67
2023/01/18 13:28:18;;;;;;;12.45;4.28;;;;;;;;;;4953586;28;93890;-68
2023/01/18 13:30:59;;;;;;;7.85;3.50;;;;;;;;;;4931486;28;96279;-67
2023/01/18 13:33:32;;;;;;;7.38;3.30;;;;;;;;;;4933686;28;95512;-68
2023/01/18 13:36:01;;;;;;;9.05;3.60;;;;;;;;;;4945524;28;93526;-67
2023/01/18 13:38:28;;;;;;;8.07;3.22;;;;;;;;;;4948787;28;92558;-68
2023/01/18 13:41:11;;;;;;;8.15;3.42;;;;;;;;;;4946573;28;95412;-67
2023/01/18 13:43:39;;;;;;;6.57;3.10;;;;;;;;;;4928282;28;93568;-67
2023/01/18 13:46:05;;;;;;;6.57;3.28;;;;;;;;;;4925059;28;92658;-67
2023/01/18 13:48:40;;;;;;;5.80;3.10;;;;;;;;;;4938243;28;93337;-67
2023/01/18 13:51:08;;;;;;;7.45;3.08;;;;;;;;;;4938344;28;92512;-67
2023/01/18 13:53:48;;;;;;;8.93;3.15;;;;;;;;;;4936693;28;94366;-67
2023/01/18 13:56:31;;;;;;;7.78;3.53;;;;;;;;;;4934526;28;95915;-67
2023/01/18 13:59:00;;;;;;;9.90;3.65;;;;;;;;;;4938836;28;92822;-67
2023/01/18 14:01:31;;;;;;;5.95;2.90;;;;;;;;;;4935644;28;95177;-68
2023/01/18 14:04:04;;;;;;;5.30;2.75;;;;;;;;;;4944994;28;93800;-67
2023/01/18 14:06:31;;;;;;;8.73;3.38;;;;;;;;;;4955661;28;92480;-67
2023/01/18 14:09:03;;;;;;;5.32;2.83;;;;;;;;;;4955927;28;93130;-67
2023/01/18 14:11:30;;;;;;;7.28;2.72;;;;;;;;;;4956138;28;93476;-67
2023/01/18 14:13:57;;;;;;;6.63;2.78;;;;;;;;;;4955171;28;94847;-67
2023/01/18 14:16:25;;;;;;;7.10;2.80;;;;;;;;;;4941166;28;94039;-67
2023/01/18 14:19:02;;;;;;;14.02;3.53;;;;;;;;;;4936016;28;92479;-67
2023/01/18 14:21:37;;;;;;;3.72;2.65;;;;;;;;;;4941781;28;95318;-67
2023/01/18 14:24:08;;;;;;;4.75;2.80;;;;;;;;;;4937432;28;94506;-67
2023/01/18 14:26:36;;;;;;;5.47;3.13;;;;;;;;;;4954344;28;92807;-67
2023/01/18 14:29:28;;;;;;;8.07;3.15;;;;;;;;;;4955500;28;93021;-67
2023/01/18 14:31:55;;;;;;;9.65;2.78;;;;;;;;;;4922549;28;94389;-67
2023/01/18 14:34:22;;;;;;;4.60;3.00;;;;;;;;;;4956126;28;92495;-67
2023/01/18 14:36:48;;;;;;;7.80;2.75;;;;;;;;;;4934565;28;93610;-67
2023/01/18 14:39:16;;;;;;;11.00;3.65;;;;;;;;;;4936296;28;91708;-67
2023/01/18 14:41:44;;;;;;;6.30;2.85;;;;;;;;;;4939244;28;92495;-67
2023/01/18 14:44:20;;;;;;;6.97;3.05;;;;;;;;;;4947068;28;93564;-67
2023/01/18 14:46:51;;;;;;;9.52;3.47;;;;;;;;;;4937359;28;95076;-67
2023/01/18 14:49:24;;;;;;;10.05;3.03;;;;;;;;;;4953509;28;95820;-67
2023/01/18 14:51:51;;;;;;;6.00;2.80;;;;;;;;;;4950888;28;93694;-67
2023/01/18 14:54:18;;;;;;;6.38;3.25;;;;;;;;;;4952265;28;92534;-67
2023/01/18 14:56:44;;;;;;;7.28;3.00;;;;;;;;;;4937618;28;93553;-67
2023/01/18 14:59:21;;;;;;;6.75;2.70;;;;;;;;;;4935812;28;92433;-67
2023/01/18 15:01:52;;;;;;;8.27;2.85;;;;;;;;;;4943202;28;92446;-67
2023/01/18 15:04:18;;;;;;;;;;;;;;;;;;4953639;28;93562;-67
2023/01/18 15:06:49;;;;;;;7.95;3.22;;;;;;;;;;4926573;28;117221;-67
2023/01/18 15:09:15;;;;;;;;;;;;;;;;;;4943600;28;94239;-67
2023/01/18 15:11:43;;;;;;;8.52;3.08;;;;;;;;;;4939599;28;126501;-67
2023/01/18 15:14:14;;;;;;;7.15;2.88;;;;;;;;;;4935887;28;92510;-67
2023/01/18 15:16:41;;;;;;;9.98;3.22;;;;;;;;;;4933974;28;93141;-67